• Join FlightAware (Why Join?)
  • Login
  • US Flag 
03:07PM EDT


 

Airport Tracker/Info


-or-


 

Live Flight TrackerFlight Track Log ✈ OPT332 ✈ 08-Nov-2013 ✈ KLFT - KAUS

Flight Track Log - Related Links

Times and Time Zones

All times are in EST time to prevent confusion due to time zone crossing. See the OPT332 flight status page for this flight to view local times or setup timezone preferences in your user account.

Time Position Orientation Groundspeed Altitude Reporting Facility
EST Latitude Longitude Course Direction KTS MPH feet Rate Location/Type
03:13PM 30.2906 -91.9883 262° West 253 291 5,000  Level Houston Center
03:14PM 30.2522 -92.0669 241° Southwest 282 325 7,600 2,040 Climbing Houston Center
03:17PM 30.2153 -92.5742 263° West  Level Estimated
03:18PM 30.2167 -92.6719 262° West  Level Estimated
03:19PM 30.0780 -92.6048 241° Southwest 353 406 18,400  Level FlightAware ADS-B
03:20PM 30.0731 -92.6742 265° West 354 407 19,700 1,380 Climbing FlightAware ADS-B
03:20PM 30.0690 -92.7325 265° West 367 422 20,000 240 Climbing FlightAware ADS-B
03:21PM 30.0644 -92.7978 265° West 365 420 20,000  Level FlightAware ADS-B
03:21PM 30.0599 -92.8598 265° West 362 417 20,000 180 Level FlightAware ADS-B
03:22PM 30.0505 -92.9898 265° West 367 422 20,300 480 Climbing FlightAware ADS-B
03:23PM 30.0461 -93.0512 265° West 380 437 20,800 600 Climbing FlightAware ADS-B
03:23PM 30.0408 -93.1230 265° West 383 441 21,000 720 Climbing FlightAware ADS-B
03:24PM 30.0363 -93.1843 265° West 378 435 21,600 1,320 Climbing FlightAware ADS-B
03:24PM 30.0315 -93.2483 265° West 374 430 22,400 1,500 Climbing FlightAware ADS-B
03:25PM 30.0270 -93.3088 265° West 369 425 23,200 1,440 Climbing FlightAware ADS-B
03:25PM 30.0225 -93.3678 265° West 365 420 23,900 1,500 Climbing FlightAware ADS-B
03:26PM 30.0176 -93.4327 265° West 364 419 24,800 1,860 Climbing FlightAware ADS-B
03:27PM 30.0132 -93.4901 265° West 353 406 25,900 2,280 Climbing FlightAware ADS-B
03:27PM 30.0087 -93.5482 265° West 340 391 27,200 2,400 Climbing FlightAware ADS-B
03:28PM 30.0044 -93.6051 265° West 329 379 28,500 2,400 Climbing FlightAware ADS-B
03:28PM 30.0004 -93.6571 265° West 319 367 29,700 2,100 Climbing FlightAware ADS-B
03:29PM 29.9964 -93.7082 265° West 318 366 30,600 1,740 Climbing FlightAware ADS-B
03:29PM 29.9921 -93.7619 265° West 318 366 31,500 1,260 Climbing FlightAware ADS-B
03:30PM 29.9878 -93.8160 265° West 327 376 32,000 420 Climbing FlightAware ADS-B
03:30PM 29.9835 -93.8713 265° West 347 399 32,000  Level FlightAware ADS-B
03:31PM 29.9789 -93.9280 265° West 364 419 32,000  Level FlightAware ADS-B
03:31PM 29.9740 -93.9901 265° West 375 432 32,000  Level FlightAware ADS-B
03:32PM 29.9691 -94.0513 265° West 376 433 32,000  Level FlightAware ADS-B
03:32PM 29.9642 -94.1118 265° West 375 432 32,000  Level FlightAware ADS-B
03:33PM 29.9592 -94.1725 265° West 375 432 32,000  Level FlightAware ADS-B
03:33PM 29.9543 -94.2329 265° West 375 432 32,000  Level FlightAware ADS-B
03:34PM 29.9494 -94.2924 265° West 374 430 32,000  Level FlightAware ADS-B
03:34PM 29.9444 -94.3523 265° West 373 429 32,000  Level FlightAware ADS-B
03:35PM 29.9394 -94.4122 265° West 373 429 32,000  Level FlightAware ADS-B
03:35PM 29.9342 -94.4739 264° West 373 429 32,000  Level FlightAware ADS-B
03:36PM 29.9292 -94.5335 264° West 374 430 32,000  Level FlightAware ADS-B
03:36PM 29.9241 -94.5938 264° West 374 430 32,000  Level FlightAware ADS-B
03:36PM 29.9232 -94.6043 264° West 375 432 32,000  Level FlightAware ADS-B
03:37PM 29.9190 -94.6539 264° West 375 432 32,000  Level FlightAware ADS-B
03:37PM 29.9168 -94.6794 264° West 375 432 32,000  Level FlightAware ADS-B
03:37PM 29.9138 -94.7137 264° West 375 432 32,000  Level FlightAware ADS-B
03:37PM 29.9116 -94.7398 264° West 375 432 32,000  Level FlightAware ADS-B
03:38PM 29.9087 -94.7736 264° West 375 432 32,000  Level FlightAware ADS-B
03:38PM 29.9048 -94.8183 264° West 375 432 32,000  Level FlightAware ADS-B
03:38PM 29.9034 -94.8344 264° West 376 433 32,000  Level FlightAware ADS-B
03:39PM 29.8929 -94.9548 264° West 374 430 32,000  Level FlightAware ADS-B
03:40PM 29.8890 -94.9984 264° West 373 429 32,000  Level FlightAware ADS-B
03:40PM 29.8876 -95.0146 264° West 373 429 32,000  Level FlightAware ADS-B
03:40PM 29.8823 -95.0747 264° West 373 429 32,000  Level FlightAware ADS-B
03:40PM 29.8821 -95.0767 265° West 373 429 32,000  Level FlightAware ADS-B
03:41PM 29.8768 -95.1365 264° West 373 429 32,000  Level FlightAware ADS-B
03:41PM 29.8768 -95.1365 342° North 373 429 32,000  Level FlightAware ADS-B
03:41PM 29.8712 -95.1984 264° West 373 429 32,000 -360 Level FlightAware ADS-B
03:41PM 29.8701 -95.2113 264° West 375 432 31,800 -1,980 Descending FlightAware ADS-B
03:42PM 29.8658 -95.2585 264° West 379 436 31,000 -1,800 Descending FlightAware ADS-B
03:42PM 29.8630 -95.2897 264° West 378 435 30,600 -1,200 Descending FlightAware ADS-B
03:42PM 29.8604 -95.3187 264° West 376 433 30,400 -840 Descending FlightAware ADS-B
03:43PM 29.8548 -95.3801 264° West 373 429 30,000 -420 Descending FlightAware ADS-B
03:43PM 29.8493 -95.4404 264° West 367 422 30,000  Level FlightAware ADS-B
03:44PM 29.8467 -95.4687 264° West 365 420 30,000  Level FlightAware ADS-B
03:44PM 29.8438 -95.5005 264° West 363 418 30,000  Level FlightAware ADS-B
03:44PM 29.8382 -95.5610 264° West 360 414 30,000 -120 Level FlightAware ADS-B
03:45PM 29.8323 -95.6249 264° West 365 420 29,900 -780 Descending FlightAware ADS-B
03:46PM 29.8266 -95.6861 264° West 386 444 29,200 -1,500 Descending FlightAware ADS-B
03:46PM 29.8203 -95.7525 264° West 394 453 28,400 -1,560 Descending FlightAware ADS-B
03:47PM 29.8143 -95.8163 264° West 400 460 27,600 -1,500 Descending FlightAware ADS-B
03:47PM 29.8082 -95.8812 264° West 401 461 26,900 -1,500 Descending FlightAware ADS-B
03:48PM 29.8019 -95.9468 264° West 400 460 26,100 -1,620 Descending FlightAware ADS-B
03:48PM 29.7959 -96.0103 264° West 399 459 25,300 -1,500 Descending FlightAware ADS-B
03:49PM 29.7897 -96.0741 264° West 400 460 24,600 -1,500 Descending FlightAware ADS-B
03:49PM 29.7835 -96.1385 264° West 399 459 23,800 -1,500 Descending FlightAware ADS-B
03:49PM 29.7810 -96.1670 264° West 400 460 23,500 -1,440 Descending FlightAware ADS-B
03:49PM 29.7810 -96.1758 270° West 400 460 23,400 -2,040 Descending FlightAware ADS-B
03:49PM 29.7822 -96.1866 277° West 401 461 23,200 -1,680 Descending FlightAware ADS-B
03:50PM 29.7851 -96.1983 286° West 402 463 23,100 -1,200 Descending FlightAware ADS-B
03:50PM 29.7881 -96.2068 292° West 403 464 23,000 -1,380 Descending FlightAware ADS-B
03:50PM 29.8127 -96.2651 296° West 402 463 22,300 -1,500 Descending FlightAware ADS-B
03:51PM 29.8364 -96.3258 294° West 401 461 21,500 -1,620 Descending FlightAware ADS-B
03:51PM 29.8593 -96.3843 294° West 397 457 20,700 -1,740 Descending FlightAware ADS-B
03:52PM 29.8875 -96.4559 294° West 396 456 19,600 -1,980 Descending FlightAware ADS-B
03:52PM 29.9100 -96.5131 294° West 388 447 18,500 -2,400 Descending FlightAware ADS-B
03:53PM 29.9336 -96.5733 294° West 372 428 17,100 -2,340 Descending FlightAware ADS-B
03:53PM 29.9548 -96.6273 294° West 365 420 16,100 -1,980 Descending FlightAware ADS-B
03:54PM 29.9759 -96.6814 294° West 365 420 15,100 -1,980 Descending FlightAware ADS-B
03:54PM 29.9974 -96.7366 294° West 365 420 14,100 -1,860 Descending FlightAware ADS-B
03:55PM 30.0186 -96.7909 294° West 363 418 13,200 -1,920 Descending FlightAware ADS-B
03:55PM 30.0399 -96.8454 294° West 363 418 12,200 -1,680 Descending FlightAware ADS-B
03:56PM 30.0567 -96.8897 294° West 358 412 11,700 -540 Descending FlightAware ADS-B
03:56PM 30.0742 -96.9442 290° West 357 411 11,700 -720 Level FlightAware ADS-B
03:57PM 30.0969 -96.9971 296° West 356 410 11,000 -1,560 Descending FlightAware ADS-B
03:57PM 30.1240 -97.0617 296° West 336 387 9,900 -1,680 Descending FlightAware ADS-B
03:58PM 30.1345 -97.0863 296° West 316 364 9,500 -1,680 Descending FlightAware ADS-B
03:58PM 30.1533 -97.1303 296° West 288 331 8,600 -1,680 Descending FlightAware ADS-B
03:59PM 30.1810 -97.1954 296° West 274 315 7,300 -1,680 Descending FlightAware ADS-B
03:59PM 30.1937 -97.2240 297° West 275 316 6,700 -780 Descending FlightAware ADS-B
04:04PM 30.3176 -97.5433 294° West 185 213 3,800 -720 Descending FlightAware ADS-B
04:04PM 30.3178 -97.5472 273° West 183 211 3,700 -2,040 Descending FlightAware ADS-B
04:04PM 30.3178 -97.5521 270° West 181 208 3,500 -2,040 Descending FlightAware ADS-B
04:04PM 30.3167 -97.5696 266° West 179 206 2,900 -900 Descending FlightAware ADS-B
04:05PM 30.3134 -97.6090 264° West 172 198 2,600 -420 Descending FlightAware ADS-B
04:05PM 30.3122 -97.6153 258° West 165 190 2,600 -480 Level FlightAware ADS-B
04:05PM 30.3106 -97.6205 250° West 164 189 2,500 -600 Descending FlightAware ADS-B
04:05PM 30.3094 -97.6239 248° West 165 190 2,500 -540 Level FlightAware ADS-B
04:05PM 30.3067 -97.6304 244° Southwest 167 192 2,400 -540 Descending FlightAware ADS-B
04:05PM 30.3051 -97.6335 239° Southwest 169 194 2,400 -600 Level FlightAware ADS-B
04:05PM 30.3027 -97.6378 237° Southwest 171 197 2,300 -840 Descending FlightAware ADS-B
04:06PM 30.2943 -97.6490 229° Southwest 172 198 2,100 -660 Descending FlightAware ADS-B
04:06PM 30.2925 -97.6508 221° Southwest 173 199 2,100 -180 Level FlightAware ADS-B
04:06PM 30.2722 -97.6611 221° Southwest 171 197 2,000 -540 Descending Houston Center
04:07PM 30.2369 -97.6586 176° South 139 160 1,200 -780 Descending Houston Center
04:09PM 30.1945 -97.6699 200° South  Level Estimated